sensor_id;sensor_type;location;lat;lon;timestamp;temperature;humidity
47514;DHT22;33951;51.988;5.910;2023-05-13T04:06:45;12.50;99.90
47514;DHT22;33951;51.988;5.910;2023-05-13T04:09:32;12.50;99.90
47514;DHT22;33951;51.988;5.910;2023-05-13T04:12:29;12.40;99.90
47514;DHT22;33951;51.988;5.910;2023-05-13T04:18:06;12.50;99.90
47514;DHT22;33951;51.988;5.910;2023-05-13T04:20:38;12.40;99.90
47514;DHT22;33951;51.988;5.910;2023-05-13T04:23:04;12.30;99.90
47514;DHT22;33951;51.988;5.910;2023-05-13T04:25:30;12.30;99.90
47514;DHT22;33951;51.988;5.910;2023-05-13T04:27:56;12.40;99.90
47514;DHT22;33951;51.988;5.910;2023-05-13T04:30:21;12.50;99.90
47514;DHT22;33951;51.988;5.910;2023-05-13T04:32:47;12.60;99.90
47514;DHT22;33951;51.988;5.910;2023-05-13T04:35:13;12.50;99.90
47514;DHT22;33951;51.988;5.910;2023-05-13T04:37:38;12.60;99.90
47514;DHT22;33951;51.988;5.910;2023-05-13T04:40:05;12.40;99.90
47514;DHT22;33951;51.988;5.910;2023-05-13T04:42:32;12.40;99.90
47514;DHT22;33951;51.988;5.910;2023-05-13T04:45:02;12.40;99.90
47514;DHT22;33951;51.988;5.910;2023-05-13T04:47:30;12.30;99.90
47514;DHT22;33951;51.988;5.910;2023-05-13T04:49:59;12.30;99.90
47514;DHT22;33951;51.988;5.910;2023-05-13T04:52:25;12.40;99.90
47514;DHT22;33951;51.988;5.910;2023-05-13T04:54:51;12.40;99.90
47514;DHT22;33951;51.988;5.910;2023-05-13T04:57:22;12.30;99.90
47514;DHT22;33951;51.988;5.910;2023-05-13T04:59:47;12.30;99.90
47514;DHT22;33951;51.988;5.910;2023-05-13T05:02:18;12.40;99.90
47514;DHT22;33951;51.988;5.910;2023-05-13T05:04:46;12.30;99.90
47514;DHT22;33951;51.988;5.910;2023-05-13T05:07:13;12.30;99.90
47514;DHT22;33951;51.988;5.910;2023-05-13T05:09:39;12.30;99.90
47514;DHT22;33951;51.988;5.910;2023-05-13T05:12:05;12.40;99.90
47514;DHT22;33951;51.988;5.910;2023-05-13T05:14:31;12.40;99.90
47514;DHT22;33951;51.988;5.910;2023-05-13T05:16:56;12.50;99.90
47514;DHT22;33951;51.988;5.910;2023-05-13T05:19:25;12.30;99.90
47514;DHT22;33951;51.988;5.910;2023-05-13T05:21:50;12.30;99.90
47514;DHT22;33951;51.988;5.910;2023-05-13T05:24:17;12.30;99.90
47514;DHT22;33951;51.988;5.910;2023-05-13T05:26:43;12.40;99.90
47514;DHT22;33951;51.988;5.910;2023-05-13T05:29:08;12.30;99.90
47514;DHT22;33951;51.988;5.910;2023-05-13T05:31:36;12.30;99.90
47514;DHT22;33951;51.988;5.910;2023-05-13T05:34:02;12.30;99.90
47514;DHT22;33951;51.988;5.910;2023-05-13T05:36:28;12.40;99.90
47514;DHT22;33951;51.988;5.910;2023-05-13T05:38:54;12.50;99.90
47514;DHT22;33951;51.988;5.910;2023-05-13T05:41:20;12.60;99.90
47514;DHT22;33951;51.988;5.910;2023-05-13T05:43:46;12.70;99.90
47514;DHT22;33951;51.988;5.910;2023-05-13T05:46:12;12.70;99.90
47514;DHT22;33951;51.988;5.910;2023-05-13T05:48:38;12.70;99.90
47514;DHT22;33951;51.988;5.910;2023-05-13T05:51:04;12.90;99.90
47514;DHT22;33951;51.988;5.910;2023-05-13T05:53:30;12.90;99.90
47514;DHT22;33951;51.988;5.910;2023-05-13T05:55:58;13.00;99.90
47514;DHT22;33951;51.988;5.910;2023-05-13T05:58:24;13.00;99.90
47514;DHT22;33951;51.988;5.910;2023-05-13T06:00:58;13.00;99.90
47514;DHT22;33951;51.988;5.910;2023-05-13T06:03:27;13.10;99.90
47514;DHT22;33951;51.988;5.910;2023-05-13T06:05:56;13.20;99.90
47514;DHT22;33951;51.988;5.910;2023-05-13T06:08:21;13.20;99.90
47514;DHT22;33951;51.988;5.910;2023-05-13T06:10:54;13.20;99.90
47514;DHT22;33951;51.988;5.910;2023-05-13T06:13:21;13.30;99.90
47514;DHT22;33951;51.988;5.910;2023-05-13T06:15:46;13.50;99.90
47514;DHT22;33951;51.988;5.910;2023-05-13T06:18:12;13.50;99.90
47514;DHT22;33951;51.988;5.910;2023-05-13T06:20:52;13.60;99.90
47514;DHT22;33951;51.988;5.910;2023-05-13T06:23:18;13.70;99.90
47514;DHT22;33951;51.988;5.910;2023-05-13T06:25:49;13.80;99.90
47514;DHT22;33951;51.988;5.910;2023-05-13T06:28:24;13.80;99.90
47514;DHT22;33951;51.988;5.910;2023-05-13T06:30:52;13.80;99.90
47514;DHT22;33951;51.988;5.910;2023-05-13T06:33:18;13.80;99.90
47514;DHT22;33951;51.988;5.910;2023-05-13T06:35:44;13.90;99.90
47514;DHT22;33951;51.988;5.910;2023-05-13T06:38:16;14.10;99.90
47514;DHT22;33951;51.988;5.910;2023-05-13T06:40:43;14.10;99.90
47514;DHT22;33951;51.988;5.910;2023-05-13T06:43:14;14.10;99.90
47514;DHT22;33951;51.988;5.910;2023-05-13T06:45:41;14.30;99.90
47514;DHT22;33951;51.988;5.910;2023-05-13T06:48:10;14.40;99.90
47514;DHT22;33951;51.988;5.910;2023-05-13T06:50:35;14.50;99.90
47514;DHT22;33951;51.988;5.910;2023-05-13T06:53:03;14.60;99.90
47514;DHT22;33951;51.988;5.910;2023-05-13T06:55:29;14.50;99.90
47514;DHT22;33951;51.988;5.910;2023-05-13T06:57:54;14.60;99.90
47514;DHT22;33951;51.988;5.910;2023-05-13T07:00:20;14.70;99.90
47514;DHT22;33951;51.988;5.910;2023-05-13T07:02:46;14.70;99.90
47514;DHT22;33951;51.988;5.910;2023-05-13T07:05:12;14.70;99.90
47514;DHT22;33951;51.988;5.910;2023-05-13T07:07:37;14.80;99.90
47514;DHT22;33951;51.988;5.910;2023-05-13T07:10:03;14.80;99.90
47514;DHT22;33951;51.988;5.910;2023-05-13T07:12:29;14.80;99.90
47514;DHT22;33951;51.988;5.910;2023-05-13T07:14:55;14.80;99.90
47514;DHT22;33951;51.988;5.910;2023-05-13T07:17:20;14.90;99.90
47514;DHT22;33951;51.988;5.910;2023-05-13T07:19:48;15.00;99.90
47514;DHT22;33951;51.988;5.910;2023-05-13T07:22:17;15.20;99.90
47514;DHT22;33951;51.988;5.910;2023-05-13T07:24:42;15.30;99.90
47514;DHT22;33951;51.988;5.910;2023-05-13T07:27:08;15.40;99.90
47514;DHT22;33951;51.988;5.910;2023-05-13T07:29:34;15.50;99.90
47514;DHT22;33951;51.988;5.910;2023-05-13T07:32:04;15.60;99.90
47514;DHT22;33951;51.988;5.910;2023-05-13T07:34:32;15.70;99.90
47514;DHT22;33951;51.988;5.910;2023-05-13T07:37:00;15.70;99.90
47514;DHT22;33951;51.988;5.910;2023-05-13T07:39:28;15.80;99.90
47514;DHT22;33951;51.988;5.910;2023-05-13T07:41:56;15.90;99.90
47514;DHT22;33951;51.988;5.910;2023-05-13T07:44:23;16.00;99.90
47514;DHT22;33951;51.988;5.910;2023-05-13T07:46:48;16.20;99.90
47514;DHT22;33951;51.988;5.910;2023-05-13T07:49:20;16.50;99.90
47514;DHT22;33951;51.988;5.910;2023-05-13T07:51:46;16.60;99.90
47514;DHT22;33951;51.988;5.910;2023-05-13T07:54:14;16.70;99.90
47514;DHT22;33951;51.988;5.910;2023-05-13T07:56:42;16.70;99.90
47514;DHT22;33951;51.988;5.910;2023-05-13T07:59:10;16.90;99.90
47514;DHT22;33951;51.988;5.910;2023-05-13T08:01:36;16.90;99.90
47514;DHT22;33951;51.988;5.910;2023-05-13T08:04:02;17.00;99.90
47514;DHT22;33951;51.988;5.910;2023-05-13T08:06:28;17.20;99.90
47514;DHT22;33951;51.988;5.910;2023-05-13T08:08:54;17.30;99.90
47514;DHT22;33951;51.988;5.910;2023-05-13T08:11:22;17.50;99.90
47514;DHT22;33951;51.988;5.910;2023-05-13T08:13:48;17.70;99.90
47514;DHT22;33951;51.988;5.910;2023-05-13T08:16:13;17.70;99.90
47514;DHT22;33951;51.988;5.910;2023-05-13T08:18:39;17.70;99.90
47514;DHT22;33951;51.988;5.910;2023-05-13T08:21:05;17.90;99.90
47514;DHT22;33951;51.988;5.910;2023-05-13T08:23:35;18.00;99.90
47514;DHT22;33951;51.988;5.910;2023-05-13T08:26:03;18.10;99.90
47514;DHT22;33951;51.988;5.910;2023-05-13T08:28:29;18.30;99.90
47514;DHT22;33951;51.988;5.910;2023-05-13T08:30:58;18.40;99.90
47514;DHT22;33951;51.988;5.910;2023-05-13T08:33:30;18.50;99.90
47514;DHT22;33951;51.988;5.910;2023-05-13T08:35:57;18.50;99.90
47514;DHT22;33951;51.988;5.910;2023-05-13T08:38:23;18.60;99.90
47514;DHT22;33951;51.988;5.910;2023-05-13T08:40:49;18.60;99.90
47514;DHT22;33951;51.988;5.910;2023-05-13T08:43:26;18.80;99.90
47514;DHT22;33951;51.988;5.910;2023-05-13T08:46:07;18.90;99.90
47514;DHT22;33951;51.988;5.910;2023-05-13T08:48:34;19.00;99.90
47514;DHT22;33951;51.988;5.910;2023-05-13T08:51:00;19.20;99.90
47514;DHT22;33951;51.988;5.910;2023-05-13T08:53:27;19.40;99.90
47514;DHT22;33951;51.988;5.910;2023-05-13T08:55:53;19.50;99.90
47514;DHT22;33951;51.988;5.910;2023-05-13T08:58:29;19.70;99.90
47514;DHT22;33951;51.988;5.910;2023-05-13T09:00:56;19.80;99.90
47514;DHT22;33951;51.988;5.910;2023-05-13T09:03:22;19.90;99.90
47514;DHT22;33951;51.988;5.910;2023-05-13T09:05:48;20.10;99.90
47514;DHT22;33951;51.988;5.910;2023-05-13T09:08:14;20.10;99.90
47514;DHT22;33951;51.988;5.910;2023-05-13T09:10:40;20.30;99.90
47514;DHT22;33951;51.988;5.910;2023-05-13T09:13:07;20.40;99.90
47514;DHT22;33951;51.988;5.910;2023-05-13T09:15:33;20.40;99.90
47514;DHT22;33951;51.988;5.910;2023-05-13T09:18:01;20.50;99.90
47514;DHT22;33951;51.988;5.910;2023-05-13T09:20:28;20.60;99.90
47514;DHT22;33951;51.988;5.910;2023-05-13T09:23:01;20.70;99.90
47514;DHT22;33951;51.988;5.910;2023-05-13T09:25:39;20.80;99.90
47514;DHT22;33951;51.988;5.910;2023-05-13T09:28:08;20.90;99.90
47514;DHT22;33951;51.988;5.910;2023-05-13T09:30:53;21.00;99.90
47514;DHT22;33951;51.988;5.910;2023-05-13T09:33:19;21.00;99.90
47514;DHT22;33951;51.988;5.910;2023-05-13T09:35:49;21.10;99.90
47514;DHT22;33951;51.988;5.910;2023-05-13T09:38:28;21.30;99.90
47514;DHT22;33951;51.988;5.910;2023-05-13T09:41:01;21.40;99.90
47514;DHT22;33951;51.988;5.910;2023-05-13T09:43:38;21.50;99.90
47514;DHT22;33951;51.988;5.910;2023-05-13T09:46:04;21.50;99.90
47514;DHT22;33951;51.988;5.910;2023-05-13T09:48:33;21.60;99.90
47514;DHT22;33951;51.988;5.910;2023-05-13T09:50:59;21.80;99.90
47514;DHT22;33951;51.988;5.910;2023-05-13T09:53:26;21.80;99.90
47514;DHT22;33951;51.988;5.910;2023-05-13T09:55:53;21.90;99.90
47514;DHT22;33951;51.988;5.910;2023-05-13T09:58:20;22.00;99.90
47514;DHT22;33951;51.988;5.910;2023-05-13T10:00:52;22.10;99.90
47514;DHT22;33951;51.988;5.910;2023-05-13T10:03:18;22.30;99.90
47514;DHT22;33951;51.988;5.910;2023-05-13T10:05:44;22.50;99.90
47514;DHT22;33951;51.988;5.910;2023-05-13T10:08:11;22.80;99.90
47514;DHT22;33951;51.988;5.910;2023-05-13T10:10:39;23.00;99.90
47514;DHT22;33951;51.988;5.910;2023-05-13T10:13:07;23.10;99.90
47514;DHT22;33951;51.988;5.910;2023-05-13T10:15:33;23.20;99.90
47514;DHT22;33951;51.988;5.910;2023-05-13T10:18:02;23.40;99.90
47514;DHT22;33951;51.988;5.910;2023-05-13T10:27:06;24.00;99.90
47514;DHT22;33951;51.988;5.910;2023-05-13T10:30:00;24.20;99.70
47514;DHT22;33951;51.988;5.910;2023-05-13T10:33:15;24.30;99.90
47514;DHT22;33951;51.988;5.910;2023-05-13T11:08:10;26.30;96.90
47514;DHT22;33951;51.988;5.910;2023-05-13T11:10:53;26.40;96.30
47514;DHT22;33951;51.988;5.910;2023-05-13T11:13:20;26.70;96.30
47514;DHT22;33951;51.988;5.910;2023-05-13T11:15:52;26.90;96.10
47514;DHT22;33951;51.988;5.910;2023-05-13T11:18:19;27.10;96.60
47514;DHT22;33951;51.988;5.910;2023-05-13T11:20:52;27.20;96.40
47514;DHT22;33951;51.988;5.910;2023-05-13T11:23:19;27.40;95.40
47514;DHT22;33951;51.988;5.910;2023-05-13T11:25:45;27.60;96.10
47514;DHT22;33951;51.988;5.910;2023-05-13T11:28:36;27.80;96.10
47514;DHT22;33951;51.988;5.910;2023-05-13T11:31:19;27.80;95.80
47514;DHT22;33951;51.988;5.910;2023-05-13T11:34:14;27.70;95.40
47514;DHT22;33951;51.988;5.910;2023-05-13T11:36:48;27.80;95.10
47514;DHT22;33951;51.988;5.910;2023-05-13T11:39:18;28.00;95.20
47514;DHT22;33951;51.988;5.910;2023-05-13T11:41:52;28.00;94.50
47514;DHT22;33951;51.988;5.910;2023-05-13T11:44:23;27.80;93.80
47514;DHT22;33951;51.988;5.910;2023-05-13T11:46:54;27.60;94.30
47514;DHT22;33951;51.988;5.910;2023-05-13T11:54:55;27.80;93.00
47514;DHT22;33951;51.988;5.910;2023-05-13T11:57:23;27.80;92.70
47514;DHT22;33951;51.988;5.910;2023-05-13T12:02:27;27.60;92.70
47514;DHT22;33951;51.988;5.910;2023-05-13T12:05:03;27.40;92.10
47514;DHT22;33951;51.988;5.910;2023-05-13T12:07:30;27.20;92.60
47514;DHT22;33951;51.988;5.910;2023-05-13T12:09:58;27.10;93.30
47514;DHT22;33951;51.988;5.910;2023-05-13T12:12:27;27.20;92.10
47514;DHT22;33951;51.988;5.910;2023-05-13T12:14:58;27.10;92.70
47514;DHT22;33951;51.988;5.910;2023-05-13T12:17:25;26.90;92.60
47514;DHT22;33951;51.988;5.910;2023-05-13T12:25:46;26.30;92.00
47514;DHT22;33951;51.988;5.910;2023-05-13T12:28:19;26.10;92.00
47514;DHT22;33951;51.988;5.910;2023-05-13T12:30:51;25.90;92.90
47514;DHT22;33951;51.988;5.910;2023-05-13T12:33:21;26.30;93.10
47514;DHT22;33951;51.988;5.910;2023-05-13T12:35:48;26.60;92.70
47514;DHT22;33951;51.988;5.910;2023-05-13T12:38:21;27.10;91.50
47514;DHT22;33951;51.988;5.910;2023-05-13T12:40:48;27.50;92.00
47514;DHT22;33951;51.988;5.910;2023-05-13T12:43:18;27.70;92.20
47514;DHT22;33951;51.988;5.910;2023-05-13T12:45:45;28.10;90.80
47514;DHT22;33951;51.988;5.910;2023-05-13T12:48:12;28.40;90.30
47514;DHT22;33951;51.988;5.910;2023-05-13T12:50:38;28.60;90.70
47514;DHT22;33951;51.988;5.910;2023-05-13T12:53:04;28.70;90.70
47514;DHT22;33951;51.988;5.910;2023-05-13T12:55:30;28.80;90.50
47514;DHT22;33951;51.988;5.910;2023-05-13T12:58:01;29.00;89.60
47514;DHT22;33951;51.988;5.910;2023-05-13T13:00:29;29.00;88.80
47514;DHT22;33951;51.988;5.910;2023-05-13T13:02:55;29.00;87.50
47514;DHT22;33951;51.988;5.910;2023-05-13T13:05:22;28.90;89.60
47514;DHT22;33951;51.988;5.910;2023-05-13T13:07:51;29.00;90.00
47514;DHT22;33951;51.988;5.910;2023-05-13T13:10:16;29.10;88.50
47514;DHT22;33951;51.988;5.910;2023-05-13T13:12:44;29.00;84.40
47514;DHT22;33951;51.988;5.910;2023-05-13T13:15:10;28.90;87.40
47514;DHT22;33951;51.988;5.910;2023-05-13T13:17:36;29.10;88.90
47514;DHT22;33951;51.988;5.910;2023-05-13T13:20:03;29.20;88.70
47514;DHT22;33951;51.988;5.910;2023-05-13T13:22:29;29.40;86.90
47514;DHT22;33951;51.988;5.910;2023-05-13T13:24:55;29.70;87.60
47514;DHT22;33951;51.988;5.910;2023-05-13T13:27:21;29.70;86.00
47514;DHT22;33951;51.988;5.910;2023-05-13T13:29:47;29.80;87.30
47514;DHT22;33951;51.988;5.910;2023-05-13T13:32:12;30.00;83.90
47514;DHT22;33951;51.988;5.910;2023-05-13T13:34:38;30.10;85.80
47514;DHT22;33951;51.988;5.910;2023-05-13T13:37:06;30.20;84.60
47514;DHT22;33951;51.988;5.910;2023-05-13T13:39:37;30.00;85.20
47514;DHT22;33951;51.988;5.910;2023-05-13T13:42:10;29.50;85.10
47514;DHT22;33951;51.988;5.910;2023-05-13T13:44:39;29.30;86.20
47514;DHT22;33951;51.988;5.910;2023-05-13T13:47:05;29.40;87.40
47514;DHT22;33951;51.988;5.910;2023-05-13T13:49:30;29.60;85.90
47514;DHT22;33951;51.988;5.910;2023-05-13T13:51:58;29.70;87.00
47514;DHT22;33951;51.988;5.910;2023-05-13T13:54:24;29.60;85.70
47514;DHT22;33951;51.988;5.910;2023-05-13T13:56:55;29.60;86.20
47514;DHT22;33951;51.988;5.910;2023-05-13T13:59:30;29.60;84.30
47514;DHT22;33951;51.988;5.910;2023-05-13T14:01:55;29.70;86.90
47514;DHT22;33951;51.988;5.910;2023-05-13T14:04:21;29.80;85.30
47514;DHT22;33951;51.988;5.910;2023-05-13T14:06:48;30.00;85.70
47514;DHT22;33951;51.988;5.910;2023-05-13T14:09:14;30.30;83.80
47514;DHT22;33951;51.988;5.910;2023-05-13T14:11:47;30.50;85.50
47514;DHT22;33951;51.988;5.910;2023-05-13T14:14:21;30.50;83.50
47514;DHT22;33951;51.988;5.910;2023-05-13T14:16:49;30.40;84.60
47514;DHT22;33951;51.988;5.910;2023-05-13T14:19:15;30.00;84.50
47514;DHT22;33951;51.988;5.910;2023-05-13T14:21:44;30.00;85.10
47514;DHT22;33951;51.988;5.910;2023-05-13T14:24:10;30.10;84.40
47514;DHT22;33951;51.988;5.910;2023-05-13T14:26:36;30.20;84.00
47514;DHT22;33951;51.988;5.910;2023-05-13T14:29:02;30.40;83.70
47514;DHT22;33951;51.988;5.910;2023-05-13T14:31:30;30.60;83.50
47514;DHT22;33951;51.988;5.910;2023-05-13T14:33:56;30.90;83.40
47514;DHT22;33951;51.988;5.910;2023-05-13T14:36:21;30.90;82.50
47514;DHT22;33951;51.988;5.910;2023-05-13T14:38:50;30.80;81.90
47514;DHT22;33951;51.988;5.910;2023-05-13T14:41:19;30.60;83.20
47514;DHT22;33951;51.988;5.910;2023-05-13T14:43:46;30.40;83.50
47514;DHT22;33951;51.988;5.910;2023-05-13T14:46:12;30.20;83.30
47514;DHT22;33951;51.988;5.910;2023-05-13T14:48:40;30.20;83.80
47514;DHT22;33951;51.988;5.910;2023-05-13T14:51:09;29.90;83.00
47514;DHT22;33951;51.988;5.910;2023-05-13T14:53:37;29.60;83.30
47514;DHT22;33951;51.988;5.910;2023-05-13T14:56:04;29.30;81.70
47514;DHT22;33951;51.988;5.910;2023-05-13T14:58:30;28.90;81.30
47514;DHT22;33951;51.988;5.910;2023-05-13T15:00:55;28.60;80.40
47514;DHT22;33951;51.988;5.910;2023-05-13T15:03:21;28.50;83.80
47514;DHT22;33951;51.988;5.910;2023-05-13T15:05:49;28.40;83.60
47514;DHT22;33951;51.988;5.910;2023-05-13T15:08:16;28.40;83.30
47514;DHT22;33951;51.988;5.910;2023-05-13T15:10:41;28.30;85.40
47514;DHT22;33951;51.988;5.910;2023-05-13T15:13:07;28.30;82.20
47514;DHT22;33951;51.988;5.910;2023-05-13T15:15:33;27.90;82.90
47514;DHT22;33951;51.988;5.910;2023-05-13T15:18:01;27.50;83.40
47514;DHT22;33951;51.988;5.910;2023-05-13T15:20:27;27.40;85.60
47514;DHT22;33951;51.988;5.910;2023-05-13T15:22:54;27.20;85.10
47514;DHT22;33951;51.988;5.910;2023-05-13T15:25:22;26.90;85.10
47514;DHT22;33951;51.988;5.910;2023-05-13T15:27:51;26.90;85.90
47514;DHT22;33951;51.988;5.910;2023-05-13T15:30:16;26.80;84.30
47514;DHT22;33951;51.988;5.910;2023-05-13T15:32:42;26.80;85.30
47514;DHT22;33951;51.988;5.910;2023-05-13T15:35:08;26.90;83.80
47514;DHT22;33951;51.988;5.910;2023-05-13T15:37:34;27.10;85.60
47514;DHT22;33951;51.988;5.910;2023-05-13T15:40:03;27.20;83.60
47514;DHT22;33951;51.988;5.910;2023-05-13T15:42:29;27.30;83.90
47514;DHT22;33951;51.988;5.910;2023-05-13T15:44:54;27.50;84.70
47514;DHT22;33951;51.988;5.910;2023-05-13T15:47:20;27.70;84.20
47514;DHT22;33951;51.988;5.910;2023-05-13T15:49:51;27.60;83.80
47514;DHT22;33951;51.988;5.910;2023-05-13T15:52:20;27.60;82.80
47514;DHT22;33951;51.988;5.910;2023-05-13T15:54:48;27.80;85.10
47514;DHT22;33951;51.988;5.910;2023-05-13T15:57:17;27.90;83.10
47514;DHT22;33951;51.988;5.910;2023-05-13T15:59:45;28.00;83.40
47514;DHT22;33951;51.988;5.910;2023-05-13T16:02:11;28.20;83.90
47514;DHT22;33951;51.988;5.910;2023-05-13T16:04:37;28.30;82.50
47514;DHT22;33951;51.988;5.910;2023-05-13T16:07:05;28.40;83.40
47514;DHT22;33951;51.988;5.910;2023-05-13T16:09:39;28.50;82.30
47514;DHT22;33951;51.988;5.910;2023-05-13T16:12:05;28.40;83.00
47514;DHT22;33951;51.988;5.910;2023-05-13T16:14:31;28.70;82.80
47514;DHT22;33951;51.988;5.910;2023-05-13T16:17:00;29.00;83.00
47514;DHT22;33951;51.988;5.910;2023-05-13T16:19:26;29.10;82.30
47514;DHT22;33951;51.988;5.910;2023-05-13T16:21:54;29.20;82.70
47514;DHT22;33951;51.988;5.910;2023-05-13T16:24:20;29.10;81.40
47514;DHT22;33951;51.988;5.910;2023-05-13T16:26:46;29.30;81.70
47514;DHT22;33951;51.988;5.910;2023-05-13T16:29:16;29.60;81.20
47514;DHT22;33951;51.988;5.910;2023-05-13T16:31:48;30.00;80.90
47514;DHT22;33951;51.988;5.910;2023-05-13T16:34:14;30.50;82.00
47514;DHT22;33951;51.988;5.910;2023-05-13T16:36:39;30.60;81.70
47514;DHT22;33951;51.988;5.910;2023-05-13T16:39:07;30.80;80.30
47514;DHT22;33951;51.988;5.910;2023-05-13T16:41:33;31.00;80.30
47514;DHT22;33951;51.988;5.910;2023-05-13T16:44:03;31.00;79.40
47514;DHT22;33951;51.988;5.910;2023-05-13T16:46:28;31.10;79.20
47514;DHT22;33951;51.988;5.910;2023-05-13T16:48:59;31.40;79.90
47514;DHT22;33951;51.988;5.910;2023-05-13T16:51:25;31.40;79.70
47514;DHT22;33951;51.988;5.910;2023-05-13T16:53:50;31.40;80.00
47514;DHT22;33951;51.988;5.910;2023-05-13T16:56:16;31.20;78.10
47514;DHT22;33951;51.988;5.910;2023-05-13T16:58:45;31.10;79.80
47514;DHT22;33951;51.988;5.910;2023-05-13T17:01:10;31.20;80.20
47514;DHT22;33951;51.988;5.910;2023-05-13T17:03:36;31.20;79.70
47514;DHT22;33951;51.988;5.910;2023-05-13T17:06:04;31.20;79.30
47514;DHT22;33951;51.988;5.910;2023-05-13T17:08:32;31.00;79.20
47514;DHT22;33951;51.988;5.910;2023-05-13T17:14:11;31.00;78.90
47514;DHT22;33951;51.988;5.910;2023-05-13T17:40:24;30.80;76.90
47514;DHT22;33951;51.988;5.910;2023-05-13T17:56:08;30.10;77.30
47514;DHT22;33951;51.988;5.910;2023-05-13T17:59:18;29.80;77.80
47514;DHT22;33951;51.988;5.910;2023-05-13T18:02:04;29.80;78.10
47514;DHT22;33951;51.988;5.910;2023-05-13T18:04:45;29.80;79.00
47514;DHT22;33951;51.988;5.910;2023-05-13T18:07:19;29.60;78.20
47514;DHT22;33951;51.988;5.910;2023-05-13T18:09:45;29.50;77.70
47514;DHT22;33951;51.988;5.910;2023-05-13T18:12:13;29.30;77.90
47514;DHT22;33951;51.988;5.910;2023-05-13T18:14:41;29.00;78.00
47514;DHT22;33951;51.988;5.910;2023-05-13T18:17:07;28.60;78.20
47514;DHT22;33951;51.988;5.910;2023-05-13T18:19:43;28.30;78.40
47514;DHT22;33951;51.988;5.910;2023-05-13T18:22:09;28.00;79.00
47514;DHT22;33951;51.988;5.910;2023-05-13T18:24:38;27.60;79.30
47514;DHT22;33951;51.988;5.910;2023-05-13T18:27:05;27.10;78.90
47514;DHT22;33951;51.988;5.910;2023-05-13T18:29:34;26.60;80.10
47514;DHT22;33951;51.988;5.910;2023-05-13T18:32:00;26.30;80.00
47514;DHT22;33951;51.988;5.910;2023-05-13T18:34:26;25.80;80.70
47514;DHT22;33951;51.988;5.910;2023-05-13T18:36:52;25.50;81.40
47514;DHT22;33951;51.988;5.910;2023-05-13T18:39:18;25.20;82.50
47514;DHT22;33951;51.988;5.910;2023-05-13T18:41:45;24.80;82.50
47514;DHT22;33951;51.988;5.910;2023-05-13T18:44:14;24.70;82.70
47514;DHT22;33951;51.988;5.910;2023-05-13T18:46:39;24.50;83.40
47514;DHT22;33951;51.988;5.910;2023-05-13T18:49:12;24.30;83.90
47514;DHT22;33951;51.988;5.910;2023-05-13T18:51:38;24.10;83.90
47514;DHT22;33951;51.988;5.910;2023-05-13T18:54:04;24.00;84.90
47514;DHT22;33951;51.988;5.910;2023-05-13T18:56:31;23.90;85.20
47514;DHT22;33951;51.988;5.910;2023-05-13T18:58:57;23.80;85.90
47514;DHT22;33951;51.988;5.910;2023-05-13T19:01:25;23.60;86.50
47514;DHT22;33951;51.988;5.910;2023-05-13T19:03:51;23.30;86.00
47514;DHT22;33951;51.988;5.910;2023-05-13T19:06:17;23.00;87.60
47514;DHT22;33951;51.988;5.910;2023-05-13T19:08:43;22.70;87.50
47514;DHT22;33951;51.988;5.910;2023-05-13T19:11:08;22.50;87.70
47514;DHT22;33951;51.988;5.910;2023-05-13T19:13:38;22.30;89.40
47514;DHT22;33951;51.988;5.910;2023-05-13T19:16:04;22.10;90.10
47514;DHT22;33951;51.988;5.910;2023-05-13T19:18:30;21.70;90.80
47514;DHT22;33951;51.988;5.910;2023-05-13T19:20:56;21.60;91.10
47514;DHT22;33951;51.988;5.910;2023-05-13T19:23:21;21.50;91.60
47514;DHT22;33951;51.988;5.910;2023-05-13T19:25:52;21.40;92.00
47514;DHT22;33951;51.988;5.910;2023-05-13T19:28:18;21.40;92.20
47514;DHT22;33951;51.988;5.910;2023-05-13T19:30:44;21.20;92.60
47514;DHT22;33951;51.988;5.910;2023-05-13T19:33:09;21.10;92.80
47514;DHT22;33951;51.988;5.910;2023-05-13T19:35:35;20.90;93.30
47514;DHT22;33951;51.988;5.910;2023-05-13T19:38:02;20.80;93.50
47514;DHT22;33951;51.988;5.910;2023-05-13T19:40:30;20.80;93.50
47514;DHT22;33951;51.988;5.910;2023-05-13T19:42:58;20.70;94.00
47514;DHT22;33951;51.988;5.910;2023-05-13T19:45:24;20.60;94.20
47514;DHT22;33951;51.988;5.910;2023-05-13T19:47:50;20.50;94.60
47514;DHT22;33951;51.988;5.910;2023-05-13T19:50:16;20.60;94.70
47514;DHT22;33951;51.988;5.910;2023-05-13T19:52:42;20.60;94.90
47514;DHT22;33951;51.988;5.910;2023-05-13T19:55:11;20.50;95.30
47514;DHT22;33951;51.988;5.910;2023-05-13T19:57:40;20.40;95.20
47514;DHT22;33951;51.988;5.910;2023-05-13T20:00:09;20.40;95.60
47514;DHT22;33951;51.988;5.910;2023-05-13T20:02:36;20.20;96.10
47514;DHT22;33951;51.988;5.910;2023-05-13T20:05:02;20.20;96.30
47514;DHT22;33951;51.988;5.910;2023-05-13T20:07:28;20.20;96.70
47514;DHT22;33951;51.988;5.910;2023-05-13T20:09:54;20.20;96.70
47514;DHT22;33951;51.988;5.910;2023-05-13T20:12:22;20.10;97.00
47514;DHT22;33951;51.988;5.910;2023-05-13T20:14:49;20.00;97.20
47514;DHT22;33951;51.988;5.910;2023-05-13T20:17:20;19.90;97.30
47514;DHT22;33951;51.988;5.910;2023-05-13T20:19:50;19.80;97.40
47514;DHT22;33951;51.988;5.910;2023-05-13T20:22:17;19.80;97.60
47514;DHT22;33951;51.988;5.910;2023-05-13T20:24:44;19.80;97.50
47514;DHT22;33951;51.988;5.910;2023-05-13T20:27:14;19.70;97.90
47514;DHT22;33951;51.988;5.910;2023-05-13T20:29:45;19.70;98.10
47514;DHT22;33951;51.988;5.910;2023-05-13T20:32:12;19.70;98.20
47514;DHT22;33951;51.988;5.910;2023-05-13T20:34:37;19.60;98.20
47514;DHT22;33951;51.988;5.910;2023-05-13T20:37:04;19.50;98.80
47514;DHT22;33951;51.988;5.910;2023-05-13T20:39:30;19.50;98.80
47514;DHT22;33951;51.988;5.910;2023-05-13T20:41:56;19.60;98.90
47514;DHT22;33951;51.988;5.910;2023-05-13T20:44:22;19.40;99.10
47514;DHT22;33951;51.988;5.910;2023-05-13T20:46:51;19.50;99.20
47514;DHT22;33951;51.988;5.910;2023-05-13T20:49:17;19.40;99.10
47514;DHT22;33951;51.988;5.910;2023-05-13T20:51:46;19.40;99.10
47514;DHT22;33951;51.988;5.910;2023-05-13T20:54:15;19.30;99.40
47514;DHT22;33951;51.988;5.910;2023-05-13T20:56:40;19.30;99.60
47514;DHT22;33951;51.988;5.910;2023-05-13T20:59:06;19.30;99.40
47514;DHT22;33951;51.988;5.910;2023-05-13T21:01:33;19.10;99.90
47514;DHT22;33951;51.988;5.910;2023-05-13T21:04:00;19.10;99.90
47514;DHT22;33951;51.988;5.910;2023-05-13T21:06:27;19.00;99.90
47514;DHT22;33951;51.988;5.910;2023-05-13T21:08:52;19.00;99.90
47514;DHT22;33951;51.988;5.910;2023-05-13T21:11:18;18.90;99.90
47514;DHT22;33951;51.988;5.910;2023-05-13T21:13:44;18.90;99.90
47514;DHT22;33951;51.988;5.910;2023-05-13T21:16:09;18.80;99.90
47514;DHT22;33951;51.988;5.910;2023-05-13T21:18:35;18.80;99.90